createdAt,value
2022-12-22T00:01:24.432Z,5.32
2022-12-22T00:02:56.184Z,4.55
2022-12-22T00:04:27.774Z,6.11
2022-12-22T00:05:59.235Z,5.60
2022-12-22T00:07:30.763Z,6.37
2022-12-22T00:09:05.718Z,4.53
2022-12-22T00:10:37.465Z,4.31
2022-12-22T00:12:10.173Z,3.84
2022-12-22T00:13:41.696Z,6.06
2022-12-22T00:15:13.092Z,4.08
2022-12-22T00:16:45.749Z,6.26
2022-12-22T00:18:17.213Z,5.56
2022-12-22T00:19:48.572Z,3.97
2022-12-22T00:21:20.159Z,4.79
2022-12-22T00:22:51.548Z,4.94
2022-12-22T00:24:23.040Z,4.46
2022-12-22T00:25:54.720Z,6.16
2022-12-22T00:27:25.945Z,5.05
2022-12-22T00:28:57.629Z,6.45
2022-12-22T00:30:28.996Z,4.02
2022-12-22T00:32:00.774Z,4.81
2022-12-22T00:33:32.315Z,4.64
2022-12-22T00:35:03.577Z,4.12
2022-12-22T00:36:40.062Z,4.56
2022-12-22T00:38:11.812Z,3.90
2022-12-22T00:39:43.160Z,3.67
2022-12-22T00:41:14.489Z,4.30
2022-12-22T00:42:45.770Z,3.32
2022-12-22T00:44:17.226Z,4.17
2022-12-22T00:45:48.789Z,4.37
2022-12-22T00:47:20.184Z,3.27
2022-12-22T00:48:51.570Z,3.55
2022-12-22T00:50:23.031Z,4.39
2022-12-22T00:51:54.582Z,3.26
2022-12-22T00:53:25.974Z,3.82
2022-12-22T00:54:57.567Z,3.24
2022-12-22T00:56:33.955Z,4.45
2022-12-22T00:58:05.401Z,3.37
2022-12-22T00:59:36.921Z,3.13
2022-12-22T01:01:08.626Z,4.52
2022-12-22T01:02:40.436Z,3.59
2022-12-22T01:04:11.972Z,4.47
2022-12-22T01:05:44.151Z,3.28
2022-12-22T01:07:15.545Z,2.97
2022-12-22T01:08:47.288Z,2.73
2022-12-22T01:10:18.776Z,4.22
2022-12-22T01:11:50.083Z,3.13
2022-12-22T01:13:21.554Z,2.87
2022-12-22T01:14:53.119Z,2.95
2022-12-22T01:16:24.491Z,3.59
2022-12-22T01:17:55.847Z,3.61
2022-12-22T01:19:27.189Z,3.66
2022-12-22T01:20:58.563Z,2.74
2022-12-22T01:22:30.011Z,2.19
2022-12-22T01:24:01.451Z,3.72
2022-12-22T01:25:32.954Z,3.77
2022-12-22T01:27:04.304Z,3.32
2022-12-22T01:28:35.713Z,3.01
2022-12-22T01:30:07.267Z,3.62
2022-12-22T01:31:38.721Z,2.85
2022-12-22T01:33:10.435Z,3.23
2022-12-22T01:34:41.906Z,3.14
2022-12-22T01:36:13.155Z,3.07
2022-12-22T01:37:44.514Z,2.63
2022-12-22T01:39:15.930Z,2.00
2022-12-22T01:40:47.526Z,1.99
2022-12-22T01:42:18.981Z,3.10
2022-12-22T01:43:50.552Z,1.93
2022-12-22T01:45:22.336Z,2.80
2022-12-22T01:46:53.917Z,2.58
2022-12-22T01:48:30.547Z,2.96
2022-12-22T01:50:01.923Z,2.76
2022-12-22T01:51:33.361Z,2.45
2022-12-22T01:53:04.775Z,2.91
2022-12-22T01:54:36.139Z,2.30
2022-12-22T01:56:07.648Z,2.65
2022-12-22T01:57:44.076Z,3.23
2022-12-22T01:59:15.462Z,3.14
2022-12-22T02:00:46.940Z,3.08
2022-12-22T02:02:18.375Z,2.11
2022-12-22T02:03:54.928Z,2.97
2022-12-22T02:05:26.604Z,2.24
2022-12-22T02:07:00.293Z,1.87
2022-12-22T02:08:32.134Z,3.21
2022-12-22T02:10:04.833Z,2.35
2022-12-22T02:11:36.563Z,3.61
2022-12-22T02:13:08.179Z,3.12
2022-12-22T02:14:39.516Z,2.81
2022-12-22T02:16:11.217Z,3.97
2022-12-22T02:17:42.772Z,3.12
2022-12-22T02:19:14.290Z,1.99
2022-12-22T02:20:45.737Z,2.51
2022-12-22T02:22:17.022Z,2.59
2022-12-22T02:23:48.556Z,1.79
2022-12-22T02:25:19.893Z,2.14
2022-12-22T02:26:51.454Z,2.59
2022-12-22T02:28:22.847Z,2.55
2022-12-22T02:29:54.191Z,1.90
2022-12-22T02:31:25.859Z,1.36
2022-12-22T02:33:01.075Z,1.52
2022-12-22T02:34:36.791Z,1.81
2022-12-22T02:36:08.359Z,1.39
2022-12-22T02:37:40.225Z,3.00
2022-12-22T02:39:11.754Z,3.01
2022-12-22T02:40:43.259Z,1.98
2022-12-22T02:42:14.510Z,1.99
2022-12-22T02:43:45.816Z,1.55
2022-12-22T02:45:17.128Z,1.69
2022-12-22T02:46:48.723Z,2.67
2022-12-22T02:48:20.142Z,2.10
2022-12-22T02:49:51.479Z,1.22
2022-12-22T02:51:22.790Z,1.64
2022-12-22T02:52:54.191Z,2.27
2022-12-22T02:54:25.755Z,1.49
2022-12-22T02:55:57.348Z,1.90
2022-12-22T02:57:28.886Z,1.39
2022-12-22T02:59:00.386Z,1.64
2022-12-22T03:00:31.753Z,1.70
2022-12-22T03:02:03.552Z,1.25
2022-12-22T03:03:35.154Z,1.79
2022-12-22T03:05:07.070Z,2.36
2022-12-22T03:06:38.411Z,2.30
2022-12-22T03:08:09.712Z,3.52
2022-12-22T03:09:41.088Z,2.06
2022-12-22T03:11:12.605Z,2.57
2022-12-22T03:12:44.002Z,3.72
2022-12-22T03:14:15.330Z,2.39
2022-12-22T03:15:46.863Z,2.10
2022-12-22T03:17:18.166Z,1.27
2022-12-22T03:18:49.508Z,2.56
2022-12-22T03:20:20.952Z,2.08
2022-12-22T03:21:52.562Z,2.38
2022-12-22T03:23:24.574Z,3.37
2022-12-22T03:24:55.994Z,2.54
2022-12-22T03:26:27.350Z,1.65
2022-12-22T03:27:58.866Z,1.30
2022-12-22T03:29:30.174Z,1.53
2022-12-22T03:31:01.757Z,2.15
2022-12-22T03:32:33.397Z,3.44
2022-12-22T03:34:04.961Z,2.66
2022-12-22T03:35:41.276Z,2.06
2022-12-22T03:37:12.654Z,2.34
2022-12-22T03:38:44.169Z,1.97
2022-12-22T03:40:15.462Z,3.75
2022-12-22T03:41:46.786Z,3.21
2022-12-22T03:43:23.184Z,2.04
2022-12-22T03:44:54.712Z,1.63
2022-12-22T03:46:26.105Z,1.52
2022-12-22T03:47:57.658Z,1.84
2022-12-22T03:49:28.930Z,1.71
2022-12-22T03:51:00.856Z,1.75
2022-12-22T03:52:32.162Z,1.65
2022-12-22T03:54:03.817Z,1.12
2022-12-22T03:55:35.168Z,2.24
2022-12-22T03:57:06.598Z,2.06
2022-12-22T03:58:38.046Z,1.66
2022-12-22T04:00:09.543Z,1.12
2022-12-22T04:01:41.262Z,1.58
2022-12-22T04:03:13.428Z,1.62
2022-12-22T04:04:44.849Z,2.45
2022-12-22T04:06:16.156Z,1.42
2022-12-22T04:07:47.608Z,3.08
2022-12-22T04:09:19.062Z,1.61
2022-12-22T04:10:50.503Z,2.20
2022-12-22T04:12:22.040Z,1.70
2022-12-22T04:13:53.344Z,1.28
2022-12-22T04:15:24.697Z,1.60
2022-12-22T04:16:56.200Z,1.14
2022-12-22T04:18:27.642Z,1.80
2022-12-22T04:19:59.076Z,2.02
2022-12-22T04:21:30.447Z,1.99
2022-12-22T04:23:01.735Z,1.97
2022-12-22T04:24:33.172Z,1.12
2022-12-22T04:26:04.561Z,1.40
2022-12-22T04:27:35.913Z,2.12
2022-12-22T04:29:07.226Z,2.71
2022-12-22T04:30:38.655Z,2.37
2022-12-22T04:32:10.021Z,2.20
2022-12-22T04:33:41.885Z,2.26
2022-12-22T04:35:18.240Z,2.31
2022-12-22T04:36:49.780Z,1.49
2022-12-22T04:38:21.230Z,0.99
2022-12-22T04:39:52.533Z,1.91
2022-12-22T04:41:23.847Z,2.30
2022-12-22T04:42:55.185Z,2.39
2022-12-22T04:44:31.602Z,1.20
2022-12-22T04:46:02.909Z,1.58
2022-12-22T04:47:34.242Z,2.45
2022-12-22T04:49:05.523Z,1.80
2022-12-22T04:50:36.952Z,1.62
2022-12-22T04:52:08.624Z,1.80
2022-12-22T04:53:40.042Z,1.67
2022-12-22T04:55:11.554Z,1.31
2022-12-22T04:57:16.855Z,1.00
2022-12-22T04:58:48.127Z,2.15
2022-12-22T05:00:19.437Z,1.65
2022-12-22T05:01:50.973Z,1.87
2022-12-22T05:03:22.674Z,2.71
2022-12-22T05:04:53.979Z,2.30
2022-12-22T05:06:25.236Z,1.82
2022-12-22T05:07:56.652Z,2.92
2022-12-22T05:09:28.170Z,2.28
2022-12-22T05:10:59.468Z,2.42
2022-12-22T05:12:30.906Z,3.27
2022-12-22T05:14:07.161Z,1.50
2022-12-22T05:15:39.024Z,1.92
2022-12-22T05:17:10.369Z,2.28
2022-12-22T05:18:41.937Z,2.10
2022-12-22T05:20:13.404Z,1.56
2022-12-22T05:21:44.809Z,2.15
2022-12-22T05:23:16.305Z,2.03
2022-12-22T05:24:47.785Z,2.12
2022-12-22T05:26:19.128Z,2.46
2022-12-22T05:27:51.610Z,3.46
2022-12-22T05:29:22.916Z,1.96
2022-12-22T05:30:54.526Z,2.25
2022-12-22T05:32:25.839Z,5.32
2022-12-22T05:33:57.247Z,4.22
2022-12-22T05:35:28.748Z,2.72
2022-12-22T05:37:00.063Z,2.08
2022-12-22T05:38:31.407Z,1.81
2022-12-22T05:40:02.865Z,2.21
2022-12-22T05:41:34.465Z,4.93
2022-12-22T05:43:05.815Z,3.44
2022-12-22T05:44:37.226Z,1.52
2022-12-22T05:46:08.607Z,2.40
2022-12-22T05:47:40.411Z,2.27
2022-12-22T05:49:11.784Z,1.97
2022-12-22T05:50:48.113Z,2.38
2022-12-22T05:52:19.438Z,2.42
2022-12-22T05:53:50.832Z,2.74
2022-12-22T05:55:22.208Z,2.29
2022-12-22T05:56:53.736Z,2.38
2022-12-22T05:58:25.189Z,2.24
2022-12-22T05:59:56.888Z,2.37
2022-12-22T06:01:28.243Z,3.90
2022-12-22T06:02:59.780Z,5.11
2022-12-22T06:04:31.258Z,9.01
2022-12-22T06:06:02.496Z,4.43
2022-12-22T06:07:33.780Z,4.63
2022-12-22T06:09:05.137Z,8.50
2022-12-22T06:10:36.449Z,3.84
2022-12-22T06:12:07.739Z,3.61
2022-12-22T06:13:39.197Z,3.07
2022-12-22T06:15:10.640Z,3.54
2022-12-22T06:16:41.933Z,1.56
2022-12-22T06:18:14.568Z,2.94
2022-12-22T06:19:45.928Z,3.56
2022-12-22T06:21:17.254Z,9.95
2022-12-22T06:22:48.556Z,6.98
2022-12-22T06:24:19.865Z,5.64
2022-12-22T06:25:51.268Z,4.26
2022-12-22T06:27:22.696Z,5.87
2022-12-22T06:28:54.070Z,4.77
2022-12-22T06:30:32.661Z,5.18
2022-12-22T06:32:04.695Z,3.82
2022-12-22T06:33:36.000Z,6.87
2022-12-22T06:35:07.417Z,5.85
2022-12-22T06:36:38.863Z,6.88
2022-12-22T06:38:10.235Z,4.47
2022-12-22T06:39:41.535Z,7.65
2022-12-22T06:41:12.916Z,7.29
2022-12-22T06:43:08.744Z,4.87
2022-12-22T06:44:40.831Z,6.24
2022-12-22T06:46:12.253Z,5.63
2022-12-22T06:47:43.828Z,5.22
2022-12-22T06:49:15.167Z,4.24
2022-12-22T06:50:46.497Z,4.27
2022-12-22T06:52:17.897Z,4.39
2022-12-22T06:53:49.299Z,4.56
2022-12-22T06:55:20.614Z,5.81
2022-12-22T06:56:52.109Z,7.16
2022-12-22T06:58:23.391Z,5.28
2022-12-22T06:59:57.660Z,5.02
2022-12-22T07:01:29.663Z,3.47
2022-12-22T07:03:01.443Z,4.76
2022-12-22T07:04:40.502Z,4.63
2022-12-22T07:06:11.927Z,3.80
2022-12-22T07:07:43.934Z,3.16
2022-12-22T07:09:15.354Z,3.56
2022-12-22T07:10:46.903Z,3.67
2022-12-22T07:12:18.520Z,3.08
2022-12-22T07:13:49.881Z,4.73
2022-12-22T07:15:21.180Z,4.84
2022-12-22T07:16:52.820Z,8.13
2022-12-22T07:18:24.093Z,7.73
2022-12-22T07:19:55.389Z,6.34
2022-12-22T07:21:26.726Z,6.97
2022-12-22T07:22:58.271Z,7.73
2022-12-22T07:24:29.806Z,5.99
2022-12-22T07:26:01.468Z,5.87
2022-12-22T07:27:32.815Z,6.37
2022-12-22T07:29:04.352Z,6.62
2022-12-22T07:30:35.759Z,5.43
2022-12-22T07:32:07.160Z,6.21
2022-12-22T07:33:38.861Z,5.82
2022-12-22T07:35:10.244Z,7.46
2022-12-22T07:36:41.784Z,10.46
2022-12-22T07:38:13.045Z,7.43
2022-12-22T07:39:44.424Z,7.43
2022-12-22T07:41:15.687Z,10.06
2022-12-22T07:42:47.381Z,8.48
2022-12-22T07:44:18.714Z,8.77
2022-12-22T07:45:50.006Z,10.06
2022-12-22T07:47:21.509Z,9.55
2022-12-22T07:48:52.791Z,10.11
2022-12-22T07:50:24.314Z,10.34
2022-12-22T07:51:55.618Z,10.68
2022-12-22T07:53:26.949Z,12.94
2022-12-22T07:54:58.672Z,13.02
2022-12-22T07:57:12.916Z,12.53
2022-12-22T07:58:44.760Z,16.09
2022-12-22T08:00:16.568Z,14.82
2022-12-22T08:01:48.121Z,16.62
2022-12-22T08:03:20.493Z,17.79
2022-12-22T08:04:53.869Z,17.53
2022-12-22T08:06:25.519Z,19.80
2022-12-22T08:07:57.217Z,21.36
2022-12-22T08:09:29.448Z,19.95
2022-12-22T08:11:01.322Z,24.16
2022-12-22T08:12:33.278Z,25.38
2022-12-22T08:14:04.881Z,23.18
2022-12-22T08:15:36.480Z,26.92
2022-12-22T08:17:08.184Z,25.13
2022-12-22T08:18:39.775Z,26.56
2022-12-22T08:20:11.420Z,31.47
2022-12-22T08:21:50.315Z,28.60
2022-12-22T08:23:23.749Z,30.20
2022-12-22T08:24:55.603Z,30.71
2022-12-22T08:26:27.034Z,33.17
2022-12-22T08:27:58.414Z,40.74
2022-12-22T08:29:29.835Z,29.86
2022-12-22T08:31:29.859Z,35.94
2022-12-22T08:33:01.719Z,36.72
2022-12-22T08:34:34.077Z,38.46
2022-12-22T08:36:08.487Z,34.55
2022-12-22T08:37:41.257Z,35.35
2022-12-22T08:39:13.305Z,35.54
2022-12-22T08:40:45.252Z,32.44
2022-12-22T08:42:18.325Z,32.21
2022-12-22T08:43:50.380Z,33.63
2022-12-22T08:45:22.470Z,32.93
2022-12-22T08:46:54.539Z,26.91
2022-12-22T08:48:26.452Z,23.53
2022-12-22T08:50:04.100Z,23.84
2022-12-22T08:51:35.798Z,20.26
2022-12-22T08:53:14.533Z,20.25
2022-12-22T08:55:01.823Z,25.10
2022-12-22T08:57:01.888Z,24.61
2022-12-22T08:58:48.008Z,28.09
2022-12-22T09:00:19.824Z,23.82
2022-12-22T09:01:51.744Z,23.56
2022-12-22T09:03:23.434Z,27.77
2022-12-22T09:04:56.197Z,26.54
2022-12-22T09:06:29.711Z,24.57
2022-12-22T09:08:03.531Z,26.09
2022-12-22T09:09:35.155Z,29.74
2022-12-22T09:11:06.755Z,28.74
2022-12-22T09:12:38.577Z,30.68
2022-12-22T09:14:10.234Z,32.84
2022-12-22T09:15:41.702Z,27.62
2022-12-22T09:19:18.186Z,28.53
2022-12-22T09:23:04.244Z,31.60
2022-12-22T09:24:35.624Z,29.36
2022-12-22T09:26:07.081Z,34.56
2022-12-22T09:27:38.876Z,39.78
2022-12-22T09:29:11.247Z,39.33
2022-12-22T09:30:42.616Z,46.12
2022-12-22T09:32:14.008Z,42.03
2022-12-22T09:33:45.388Z,43.06
2022-12-22T09:35:16.716Z,42.21
2022-12-22T09:36:58.751Z,50.33
2022-12-22T09:38:30.088Z,45.64
2022-12-22T09:40:02.909Z,42.90
2022-12-22T09:41:40.124Z,40.90
2022-12-22T09:43:11.820Z,36.92
2022-12-22T09:44:44.455Z,34.03
2022-12-22T09:46:16.352Z,35.95
2022-12-22T09:49:55.003Z,38.13
2022-12-22T09:51:27.283Z,34.16
2022-12-22T09:52:59.019Z,27.93
2022-12-22T09:54:40.773Z,24.98
2022-12-22T09:56:12.127Z,23.60
2022-12-22T09:57:56.029Z,30.35
2022-12-22T09:59:27.327Z,25.74
2022-12-22T10:00:58.801Z,31.66
2022-12-22T10:02:30.309Z,30.17
2022-12-22T10:04:01.891Z,31.20
2022-12-22T10:05:33.512Z,29.27
2022-12-22T10:07:04.818Z,29.50
2022-12-22T10:08:36.376Z,30.24
2022-12-22T10:10:09.062Z,31.04
2022-12-22T10:11:40.613Z,30.57
2022-12-22T10:13:12.519Z,30.93
2022-12-22T10:14:43.996Z,23.47
2022-12-22T10:16:15.479Z,28.15
2022-12-22T10:17:47.366Z,26.20
2022-12-22T10:19:18.912Z,29.58
2022-12-22T10:20:50.244Z,30.09
2022-12-22T10:22:21.657Z,27.05
2022-12-22T10:23:53.185Z,30.16
2022-12-22T10:25:24.527Z,29.02
2022-12-22T10:26:55.954Z,24.50
2022-12-22T10:28:27.463Z,31.64
2022-12-22T10:29:58.811Z,29.02
2022-12-22T10:31:30.306Z,33.74
2022-12-22T10:33:02.292Z,32.80
2022-12-22T10:34:33.895Z,32.42
2022-12-22T10:38:21.449Z,28.75
2022-12-22T10:39:53.473Z,30.44
2022-12-22T10:41:25.196Z,34.35
2022-12-22T10:42:56.495Z,35.69
2022-12-22T10:44:27.909Z,35.53
2022-12-22T10:45:59.289Z,35.63
2022-12-22T10:47:30.808Z,31.78
2022-12-22T10:49:02.315Z,32.79
2022-12-22T10:50:33.899Z,35.51
2022-12-22T10:52:05.262Z,33.75
2022-12-22T10:53:37.899Z,26.48
2022-12-22T10:55:09.328Z,35.55
2022-12-22T10:56:40.770Z,35.59
2022-12-22T10:58:12.254Z,39.40
2022-12-22T10:59:43.653Z,33.79
2022-12-22T11:01:14.948Z,36.34
2022-12-22T11:02:46.512Z,36.76
2022-12-22T11:04:17.822Z,37.21
2022-12-22T11:05:49.136Z,36.90
2022-12-22T11:07:20.594Z,37.60
2022-12-22T11:08:52.383Z,32.92
2022-12-22T11:10:23.824Z,34.92
2022-12-22T11:11:55.102Z,32.01
2022-12-22T11:13:28.526Z,35.09
2022-12-22T11:14:59.953Z,35.39
2022-12-22T11:16:31.444Z,31.71
2022-12-22T11:18:02.954Z,28.96
2022-12-22T11:19:34.454Z,30.42
2022-12-22T11:21:06.023Z,32.06
2022-12-22T11:22:37.425Z,31.00
2022-12-22T11:24:08.798Z,32.75
2022-12-22T11:25:40.314Z,36.94
2022-12-22T11:27:11.792Z,36.18
2022-12-22T11:28:43.093Z,33.02
2022-12-22T11:30:14.736Z,28.94
2022-12-22T11:31:46.227Z,34.08
2022-12-22T11:33:17.465Z,33.18
2022-12-22T11:34:48.856Z,28.02
2022-12-22T11:36:20.348Z,34.93
2022-12-22T11:37:51.673Z,35.73
2022-12-22T11:39:22.928Z,38.60
2022-12-22T11:40:54.304Z,33.90
2022-12-22T11:42:35.733Z,33.62
2022-12-22T11:44:12.300Z,36.31
2022-12-22T11:45:43.886Z,35.09
2022-12-22T11:47:15.464Z,36.76
2022-12-22T11:48:46.880Z,46.43
2022-12-22T11:50:58.889Z,44.47
2022-12-22T11:52:33.724Z,29.36
2022-12-22T11:54:10.584Z,35.84
2022-12-22T11:55:42.317Z,44.55
2022-12-22T11:57:13.638Z,40.25
2022-12-22T11:58:45.040Z,39.37
2022-12-22T12:00:16.344Z,39.40
2022-12-22T12:01:47.752Z,44.52
2022-12-22T12:03:19.586Z,36.36
2022-12-22T12:04:51.002Z,30.12
2022-12-22T12:06:22.268Z,34.53
2022-12-22T12:07:53.590Z,35.84
2022-12-22T12:09:25.152Z,29.02
2022-12-22T12:10:56.634Z,32.47
2022-12-22T12:12:28.064Z,27.27
2022-12-22T12:13:59.458Z,30.35
2022-12-22T12:15:31.070Z,30.56
2022-12-22T12:17:02.793Z,31.70
2022-12-22T12:18:34.541Z,29.08
2022-12-22T12:20:05.930Z,26.86
2022-12-22T12:21:37.408Z,35.28
2022-12-22T12:23:08.692Z,34.30
2022-12-22T12:24:40.238Z,30.17
2022-12-22T12:26:11.698Z,27.33
2022-12-22T12:27:43.014Z,26.95
2022-12-22T12:29:14.651Z,30.04
2022-12-22T12:30:46.462Z,26.64
2022-12-22T12:32:17.921Z,28.50
2022-12-22T12:33:49.707Z,22.34
2022-12-22T12:35:21.327Z,25.93
2022-12-22T12:36:53.059Z,24.91
2022-12-22T12:38:56.852Z,21.90
2022-12-22T12:40:38.065Z,20.69
2022-12-22T12:42:09.450Z,23.40
2022-12-22T12:43:40.962Z,25.90
2022-12-22T12:45:12.430Z,23.02
2022-12-22T12:46:44.000Z,25.15
2022-12-22T12:48:16.023Z,20.10
2022-12-22T12:49:47.549Z,22.97
2022-12-22T12:51:18.868Z,21.62
2022-12-22T12:52:50.513Z,16.09
2022-12-22T12:54:21.841Z,16.79
2022-12-22T12:55:54.275Z,19.07
2022-12-22T12:57:25.895Z,17.37
2022-12-22T12:58:57.290Z,15.72
2022-12-22T13:00:29.358Z,22.64
2022-12-22T13:02:01.355Z,20.89
2022-12-22T13:04:01.739Z,15.61
2022-12-22T13:05:33.600Z,18.44
2022-12-22T13:07:06.310Z,18.38
2022-12-22T13:08:37.808Z,21.63
2022-12-22T13:10:09.128Z,22.03
2022-12-22T13:12:10.468Z,20.45
2022-12-22T13:13:43.251Z,21.14
2022-12-22T13:15:14.561Z,18.63
2022-12-22T13:16:46.393Z,17.68
2022-12-22T13:18:18.223Z,24.16
2022-12-22T13:19:49.820Z,23.40
2022-12-22T13:21:51.758Z,23.70
2022-12-22T13:23:24.795Z,22.55
2022-12-22T13:24:56.341Z,23.26
2022-12-22T13:26:27.807Z,24.86
2022-12-22T13:28:00.118Z,25.61
2022-12-22T13:29:31.631Z,24.67
2022-12-22T13:31:03.179Z,26.10
2022-12-22T13:32:35.671Z,26.43
2022-12-22T13:34:06.955Z,28.32
2022-12-22T13:35:46.595Z,26.18
2022-12-22T13:37:18.258Z,18.78
2022-12-22T13:38:49.784Z,23.35
2022-12-22T13:40:21.092Z,27.51
2022-12-22T13:41:52.531Z,23.41
2022-12-22T13:43:23.799Z,22.65
2022-12-22T13:44:55.140Z,15.26
2022-12-22T13:46:26.806Z,18.43
2022-12-22T13:47:58.535Z,20.15
2022-12-22T13:50:06.679Z,20.57
2022-12-22T13:51:38.891Z,19.06
2022-12-22T13:53:10.275Z,18.13
2022-12-22T13:54:41.619Z,18.62
2022-12-22T13:56:13.105Z,19.30
2022-12-22T13:57:44.831Z,18.82
2022-12-22T13:59:16.230Z,17.96
2022-12-22T14:00:47.572Z,18.34
2022-12-22T14:02:19.143Z,19.69
2022-12-22T14:04:00.265Z,20.11
2022-12-22T14:05:32.989Z,18.90
2022-12-22T14:07:05.739Z,18.43
2022-12-22T14:08:37.149Z,17.65
2022-12-22T14:10:08.443Z,19.19
2022-12-22T14:11:44.097Z,18.47
2022-12-22T14:13:18.657Z,18.86
2022-12-22T14:14:55.306Z,19.06
2022-12-22T14:16:26.618Z,20.71
2022-12-22T14:17:57.979Z,21.01
2022-12-22T14:19:29.312Z,19.56
2022-12-22T14:21:00.643Z,20.88
2022-12-22T14:22:32.323Z,19.47
2022-12-22T14:24:03.700Z,20.65
2022-12-22T14:25:35.045Z,23.14
2022-12-22T14:27:06.481Z,20.37
2022-12-22T14:28:37.839Z,21.72
2022-12-22T14:30:09.287Z,19.82
2022-12-22T14:31:40.751Z,20.79
2022-12-22T14:33:12.125Z,20.48
2022-12-22T14:34:43.425Z,19.50
2022-12-22T14:36:15.304Z,19.34
2022-12-22T14:37:46.645Z,18.20
2022-12-22T14:39:18.039Z,20.98
2022-12-22T14:40:54.660Z,30.09
2022-12-22T14:42:28.485Z,23.11
2022-12-22T14:44:32.843Z,18.93
2022-12-22T14:46:04.267Z,21.79
2022-12-22T14:47:35.823Z,20.58
2022-12-22T14:49:07.812Z,19.37
2022-12-22T14:50:39.157Z,20.71
2022-12-22T14:52:10.462Z,20.70
2022-12-22T14:53:41.856Z,18.93
2022-12-22T14:55:13.296Z,17.21
2022-12-22T14:56:44.843Z,19.02
2022-12-22T14:58:16.225Z,17.60
2022-12-22T14:59:47.563Z,17.19
2022-12-22T15:01:19.097Z,17.47
2022-12-22T15:02:50.932Z,19.38
2022-12-22T15:04:22.296Z,18.16
2022-12-22T15:05:53.907Z,19.02
2022-12-22T15:08:03.390Z,17.10
2022-12-22T15:11:47.229Z,18.51
2022-12-22T15:13:18.565Z,16.56
2022-12-22T15:14:50.053Z,18.91
2022-12-22T15:16:21.817Z,19.92
2022-12-22T15:17:53.122Z,18.93
2022-12-22T15:19:24.947Z,17.64
2022-12-22T15:20:56.687Z,16.38
2022-12-22T15:22:28.266Z,17.95
2022-12-22T15:23:59.656Z,18.84
2022-12-22T15:25:30.916Z,18.36
2022-12-22T15:27:02.239Z,17.98
2022-12-22T15:28:34.278Z,17.43
2022-12-22T15:30:05.860Z,17.80
2022-12-22T15:31:37.173Z,19.39
2022-12-22T15:33:08.651Z,16.98
2022-12-22T15:34:40.068Z,15.45
2022-12-22T15:36:11.386Z,16.66
2022-12-22T15:37:42.709Z,16.38
2022-12-22T15:39:14.180Z,17.48
2022-12-22T15:40:45.447Z,17.18
2022-12-22T15:42:16.814Z,15.56
2022-12-22T15:43:58.805Z,17.32
2022-12-22T15:45:30.590Z,18.59
2022-12-22T15:47:02.184Z,17.48
2022-12-22T15:48:33.583Z,20.65
2022-12-22T15:50:04.855Z,17.70
2022-12-22T15:51:36.518Z,16.35
2022-12-22T15:53:07.852Z,18.66
2022-12-22T15:54:39.339Z,18.02
2022-12-22T15:56:17.046Z,18.20
2022-12-22T15:57:48.948Z,20.53
2022-12-22T15:59:20.349Z,18.87
2022-12-22T16:00:51.953Z,19.27
2022-12-22T16:02:24.199Z,18.63
2022-12-22T16:03:55.624Z,18.92
2022-12-22T16:05:26.911Z,18.69
2022-12-22T16:06:58.321Z,20.29
2022-12-22T16:08:29.653Z,18.95
2022-12-22T16:10:01.012Z,19.44
2022-12-22T16:11:32.493Z,19.95
2022-12-22T16:13:03.780Z,17.69
2022-12-22T16:14:38.859Z,17.35
2022-12-22T16:16:11.383Z,19.06
2022-12-22T16:17:42.799Z,18.91
2022-12-22T16:19:14.204Z,18.48
2022-12-22T16:20:45.540Z,18.41
2022-12-22T16:22:16.961Z,19.16
2022-12-22T16:23:48.274Z,15.58
2022-12-22T16:25:19.633Z,16.65
2022-12-22T16:26:50.920Z,17.38
2022-12-22T16:28:22.382Z,19.14
2022-12-22T16:29:53.844Z,16.81
2022-12-22T16:31:25.212Z,17.87
2022-12-22T16:32:56.641Z,18.13
2022-12-22T16:34:27.860Z,17.75
2022-12-22T16:35:59.199Z,17.52
2022-12-22T16:37:30.472Z,19.10
2022-12-22T16:39:01.876Z,17.97
2022-12-22T16:40:33.447Z,19.17
2022-12-22T16:42:04.956Z,16.59
2022-12-22T16:43:52.011Z,18.92
2022-12-22T16:45:23.507Z,19.04
2022-12-22T16:46:56.345Z,20.66
2022-12-22T16:48:28.554Z,19.62
2022-12-22T16:49:59.939Z,19.99
2022-12-22T16:51:31.244Z,21.97
2022-12-22T16:53:02.646Z,19.37
2022-12-22T16:54:33.944Z,18.17
2022-12-22T16:56:05.313Z,21.21
2022-12-22T16:57:36.640Z,20.05
2022-12-22T16:59:08.246Z,19.32
2022-12-22T17:00:39.622Z,17.20
2022-12-22T17:02:11.503Z,20.70
2022-12-22T17:03:43.047Z,18.63
2022-12-22T17:05:14.684Z,21.10
2022-12-22T17:06:46.439Z,19.17
2022-12-22T17:08:17.959Z,19.45
2022-12-22T17:10:13.174Z,19.14
2022-12-22T17:11:44.458Z,17.20
2022-12-22T17:13:20.772Z,17.56
2022-12-22T17:15:12.174Z,18.13
2022-12-22T17:16:43.698Z,17.97
2022-12-22T17:18:24.961Z,18.78
2022-12-22T17:20:01.720Z,18.69
2022-12-22T17:21:53.243Z,17.96
2022-12-22T17:23:24.721Z,18.84
2022-12-22T17:24:56.270Z,17.24
2022-12-22T17:26:37.524Z,17.53
2022-12-22T17:28:09.327Z,16.94
2022-12-22T17:29:40.709Z,17.55
2022-12-22T17:31:12.361Z,16.99
2022-12-22T17:32:43.699Z,17.30
2022-12-22T17:34:15.198Z,17.65
2022-12-22T17:35:46.617Z,16.72
2022-12-22T17:37:18.326Z,17.28
2022-12-22T17:38:49.576Z,16.49
2022-12-22T17:40:20.930Z,17.07
2022-12-22T17:41:57.150Z,14.72
2022-12-22T17:43:28.891Z,15.96
2022-12-22T17:45:00.245Z,15.47
2022-12-22T17:46:31.643Z,14.47
2022-12-22T17:48:18.749Z,11.44
2022-12-22T17:49:50.194Z,11.84
2022-12-22T17:51:21.553Z,11.79
2022-12-22T17:52:53.151Z,12.57
2022-12-22T17:54:26.038Z,12.40
2022-12-22T17:56:08.698Z,10.58
2022-12-22T17:57:40.863Z,12.41
2022-12-22T17:59:12.120Z,10.84
2022-12-22T18:00:43.549Z,10.72
2022-12-22T18:02:15.086Z,9.34
2022-12-22T18:03:47.099Z,7.95
2022-12-22T18:05:18.551Z,8.96
2022-12-22T18:06:49.894Z,8.91
2022-12-22T18:08:21.233Z,9.65
2022-12-22T18:09:52.565Z,7.70
2022-12-22T18:11:23.960Z,8.98
2022-12-22T18:13:17.759Z,7.89
2022-12-22T18:14:49.403Z,8.68
2022-12-22T18:16:21.251Z,7.43
2022-12-22T18:17:53.761Z,7.88
2022-12-22T18:19:30.556Z,8.05
2022-12-22T18:21:07.083Z,7.32
2022-12-22T18:22:39.327Z,8.20
2022-12-22T18:24:10.969Z,7.62
2022-12-22T18:25:47.238Z,7.32
2022-12-22T18:27:18.708Z,7.86
2022-12-22T18:28:50.364Z,8.23
2022-12-22T18:30:21.641Z,6.63
2022-12-22T18:31:53.249Z,6.69
2022-12-22T18:33:25.143Z,7.10
2022-12-22T18:35:01.497Z,7.95
2022-12-22T18:36:32.910Z,9.30
2022-12-22T18:38:04.628Z,6.88
2022-12-22T18:39:36.107Z,5.65
2022-12-22T18:41:08.578Z,6.03
2022-12-22T18:42:39.936Z,7.22
2022-12-22T18:44:11.213Z,5.83
2022-12-22T18:45:49.592Z,6.54
2022-12-22T18:47:26.412Z,6.04
2022-12-22T18:49:03.390Z,5.77
2022-12-22T18:50:36.867Z,6.52
2022-12-22T18:52:08.114Z,7.32
2022-12-22T18:53:39.447Z,6.79
2022-12-22T18:55:10.875Z,7.59
2022-12-22T18:56:42.207Z,6.68
2022-12-22T18:58:13.522Z,7.51
2022-12-22T18:59:44.837Z,9.21
2022-12-22T19:01:16.286Z,11.74
2022-12-22T19:02:47.809Z,9.68
2022-12-22T19:04:19.216Z,11.47
2022-12-22T19:05:50.568Z,11.67
2022-12-22T19:07:21.865Z,11.99
2022-12-22T19:08:53.205Z,14.50
2022-12-22T19:10:24.562Z,12.85
2022-12-22T19:11:56.025Z,13.73
2022-12-22T19:13:27.469Z,13.20
2022-12-22T19:14:59.066Z,13.01
2022-12-22T19:16:30.766Z,14.17
2022-12-22T19:18:02.393Z,15.86
2022-12-22T19:19:34.250Z,18.43
2022-12-22T19:21:05.597Z,14.86
2022-12-22T19:22:37.289Z,17.08
2022-12-22T19:24:09.027Z,16.16
2022-12-22T19:25:40.307Z,15.18
2022-12-22T19:27:11.727Z,17.02
2022-12-22T19:28:43.236Z,15.32
2022-12-22T19:30:14.649Z,16.25
2022-12-22T19:31:46.198Z,16.86
2022-12-22T19:33:18.059Z,16.93
2022-12-22T19:34:49.419Z,14.67
2022-12-22T19:36:20.717Z,15.96
2022-12-22T19:37:52.535Z,15.84
2022-12-22T19:39:24.064Z,17.35
2022-12-22T19:40:55.538Z,13.96
2022-12-22T19:42:27.122Z,17.56
2022-12-22T19:43:58.721Z,20.20
2022-12-22T19:45:30.226Z,15.97
2022-12-22T19:47:01.685Z,18.04
2022-12-22T19:48:33.062Z,16.19
2022-12-22T19:50:04.431Z,17.84
2022-12-22T19:51:35.769Z,17.16
2022-12-22T19:53:07.069Z,20.14
2022-12-22T19:54:38.405Z,20.09
2022-12-22T19:56:09.779Z,17.62
2022-12-22T19:57:41.422Z,16.55
2022-12-22T19:59:12.812Z,18.09
2022-12-22T20:00:52.782Z,17.87
2022-12-22T20:02:24.242Z,17.26
2022-12-22T20:03:55.638Z,16.74
2022-12-22T20:05:27.035Z,15.18
2022-12-22T20:06:58.369Z,12.57
2022-12-22T20:08:30.954Z,12.35
2022-12-22T20:10:02.336Z,19.41
2022-12-22T20:11:33.940Z,15.21
2022-12-22T20:13:05.280Z,17.98
2022-12-22T20:14:36.654Z,14.78
2022-12-22T20:16:08.212Z,13.90
2022-12-22T20:17:39.709Z,14.04
2022-12-22T20:19:11.225Z,15.14
2022-12-22T20:20:42.653Z,15.68
2022-12-22T20:22:14.034Z,18.91